Time;durP1;ratioP1;P1;durP2;ratioP2;P2;SDS_P1;SDS_P2;PMS_P1;PMS_P2;Temp;Humidity;BMP_temperature;BMP_pressure;BME280_temperature;BME280_humidity;BME280_pressure;Samples;Min_cycle;Max_cycle;Signal;HPM_P1;HPM_P2
2021/01/19 00:00:41;;;;;;;11.23;3.05;;;22.70;42.20;;;;;;20879455;28;20052;-15
2021/01/19 00:10:41;;;;;;;6.78;2.30;;;22.40;42.70;;;;;;20871186;28;20029;-15
2021/01/19 00:20:42;;;;;;;6.65;2.83;;;22.00;43.10;;;;;;20870191;28;20495;-15
2021/01/19 00:30:43;;;;;;;7.45;2.15;;;21.70;43.40;;;;;;20869104;28;20033;-14
2021/01/19 00:40:44;;;;;;;6.68;1.85;;;21.50;43.20;;;;;;20865922;28;20106;-15
2021/01/19 00:50:44;;;;;;;6.93;2.15;;;21.50;42.70;;;;;;20870515;28;20108;-15
2021/01/19 01:00:45;;;;;;;7.25;2.40;;;21.40;43.10;;;;;;20866723;28;20457;-15
2021/01/19 01:10:46;;;;;;;4.93;1.60;;;21.20;42.50;;;;;;20873228;28;20491;-15
2021/01/19 01:20:46;;;;;;;3.83;1.77;;;21.20;42.20;;;;;;20866204;28;20177;-15
2021/01/19 01:30:47;;;;;;;3.50;1.52;;;21.00;42.30;;;;;;20870764;28;20052;-18
2021/01/19 01:40:48;;;;;;;3.65;1.50;;;20.90;42.30;;;;;;20830727;28;20496;-14
2021/01/19 01:50:48;;;;;;;3.45;1.42;;;20.70;42.50;;;;;;20849491;28;20045;-15
2021/01/19 02:00:50;;;;;;;3.83;1.60;;;20.50;42.80;;;;;;20862554;28;20472;-15
2021/01/19 02:11:18;;;;;;;4.65;1.70;;;20.40;42.80;;;;;;20885213;28;20032;-15
2021/01/19 02:22:04;;;;;;;4.85;1.73;;;20.40;42.70;;;;;;20898886;28;20025;-15
2021/01/19 02:32:31;;;;;;;3.50;1.50;;;20.30;42.60;;;;;;20902241;28;20036;-15
2021/01/19 02:42:40;;;;;;;4.75;1.27;;;20.20;42.60;;;;;;20895074;28;20044;-15
2021/01/19 02:52:41;;;;;;;;;;;20.10;42.90;;;;;;20902590;28;20132;-15
2021/01/19 03:02:45;;;;;;;4.40;1.50;;;20.20;42.50;;;;;;20901244;28;19940;-15
2021/01/19 03:12:47;;;;;;;2.50;1.10;;;20.10;42.70;;;;;;20894205;28;21032;-15
2021/01/19 03:22:47;;;;;;;3.10;1.40;;;20.00;42.70;;;;;;20903910;28;20017;-15
2021/01/19 03:32:48;;;;;;;4.77;1.37;;;19.90;42.70;;;;;;20900703;28;20032;-15
2021/01/19 03:42:48;;;;;;;1.75;0.80;;;19.90;42.80;;;;;;20873697;28;20403;-15
2021/01/19 03:52:50;;;;;;;1.83;1.10;;;19.80;42.90;;;;;;20913999;28;20047;-14
2021/01/19 04:02:51;;;;;;;3.15;1.08;;;19.80;42.80;;;;;;20914231;28;20029;-15
2021/01/19 04:12:51;;;;;;;3.45;1.38;;;19.80;43.00;;;;;;20912062;28;20071;-15
2021/01/19 04:22:52;;;;;;;3.80;1.38;;;19.70;42.90;;;;;;20905788;28;20029;-15
2021/01/19 04:32:52;;;;;;;2.28;1.30;;;19.60;42.80;;;;;;20913129;28;20039;-15
2021/01/19 04:42:53;;;;;;;2.15;1.00;;;19.60;42.90;;;;;;20881170;28;20041;-15
2021/01/19 04:52:57;;;;;;;2.53;0.85;;;19.50;42.80;;;;;;20875521;28;20037;-15
2021/01/19 05:03:01;;;;;;;2.40;0.95;;;19.40;42.80;;;;;;20866478;28;20033;-15
2021/01/19 05:13:10;;;;;;;2.90;0.98;;;19.50;42.80;;;;;;20887065;22;20037;-15
2021/01/19 05:23:21;;;;;;;2.20;0.88;;;19.50;43.00;;;;;;20851377;28;20036;-15
2021/01/19 05:33:22;;;;;;;3.60;0.75;;;20.00;41.90;;;;;;20837807;28;20026;-16
2021/01/19 05:43:27;;;;;;;2.53;0.77;;;20.50;40.80;;;;;;20824293;28;20044;-16
2021/01/19 05:53:29;;;;;;;1.45;0.40;;;21.10;39.70;;;;;;20836015;28;20044;-15
2021/01/19 06:03:32;;;;;;;4.93;0.50;;;21.80;38.60;;;;;;20822971;28;20030;-16
2021/01/19 06:13:33;;;;;;;3.03;0.73;;;22.20;37.70;;;;;;20801617;28;20116;-15
2021/01/19 06:23:44;;;;;;;3.40;0.68;;;22.70;37.00;;;;;;20796383;28;20048;-15
2021/01/19 06:33:47;;;;;;;3.30;0.65;;;22.80;36.90;;;;;;20773644;28;20021;-15
2021/01/19 06:43:54;;;;;;;15.95;3.55;;;22.50;37.40;;;;;;20808015;28;20087;-15
2021/01/19 06:54:07;;;;;;;15.27;2.95;;;22.20;38.10;;;;;;20803849;28;20037;-16
2021/01/19 07:04:25;;;;;;;15.05;3.50;;;22.00;37.80;;;;;;20835141;28;20056;-15
2021/01/19 07:14:40;;;;;;;9.27;2.78;;;21.90;37.90;;;;;;20836346;28;20026;-16
2021/01/19 07:24:47;;;;;;;9.48;4.10;;;21.80;37.90;;;;;;20835555;28;20025;-16
2021/01/19 07:34:48;;;;;;;5.40;2.65;;;21.80;37.90;;;;;;20833572;28;20027;-15
2021/01/19 07:45:00;;;;;;;9.50;1.77;;;21.70;38.10;;;;;;20816909;28;20506;-15
2021/01/19 07:55:15;;;;;;;7.05;2.13;;;21.70;38.10;;;;;;20847264;28;20116;-15
2021/01/19 08:05:27;;;;;;;18.23;2.67;;;21.60;37.80;;;;;;20856050;28;20040;-15
2021/01/19 08:15:31;;;;;;;7.88;2.08;;;21.60;37.50;;;;;;20850773;28;20556;-15
2021/01/19 08:25:32;;;;;;;9.32;1.90;;;21.50;38.00;;;;;;20852029;28;20100;-14
2021/01/19 08:35:33;;;;;;;8.52;1.80;;;21.30;38.60;;;;;;20848167;28;20101;-14
2021/01/19 08:45:38;;;;;;;4.95;1.85;;;21.10;39.00;;;;;;20839204;28;20029;-14
2021/01/19 08:55:39;;;;;;;7.97;1.98;;;20.90;39.50;;;;;;20832744;28;20109;-15
2021/01/19 09:05:40;;;;;;;11.57;3.78;;;20.70;39.90;;;;;;20830730;28;20078;-14
2021/01/19 09:15:42;;;;;;;12.73;2.47;;;20.50;40.70;;;;;;20828244;28;20060;-13
2021/01/19 09:25:47;;;;;;;4.55;1.55;;;20.40;41.10;;;;;;20827382;28;20041;-15
2021/01/19 09:35:48;;;;;;;6.88;2.35;;;20.30;41.20;;;;;;20814824;28;20029;-14
2021/01/19 09:45:50;;;;;;;11.13;1.80;;;20.30;41.40;;;;;;20827341;28;20029;-13
2021/01/19 09:55:51;;;;;;;11.30;2.95;;;20.20;41.60;;;;;;20810545;28;20092;-13
2021/01/19 10:06:04;;;;;;;10.07;1.30;;;20.10;41.60;;;;;;20836047;28;20025;-14
2021/01/19 10:16:06;;;;;;;7.45;1.75;;;20.00;41.80;;;;;;20863692;28;20045;-14
2021/01/19 10:26:11;;;;;;;6.00;1.83;;;20.30;42.30;;;;;;20894167;28;20043;-14
2021/01/19 10:36:12;;;;;;;7.32;2.08;;;20.70;41.80;;;;;;20844945;28;20025;-15
2021/01/19 10:46:31;;;;;;;6.50;1.55;;;21.30;40.90;;;;;;20839455;28;20098;-14
2021/01/19 10:56:32;;;;;;;10.98;1.20;;;21.80;40.30;;;;;;20822455;28;20025;-14
2021/01/19 11:06:36;;;;;;;5.35;2.63;;;22.30;39.20;;;;;;20819692;28;20064;-14
2021/01/19 11:16:39;;;;;;;4.93;1.65;;;22.50;38.90;;;;;;20866941;23;20423;-13
2021/01/19 11:26:41;;;;;;;9.13;1.45;;;22.90;37.50;;;;;;20880393;28;20088;-14
2021/01/19 11:36:42;;;;;;;10.60;3.17;;;23.20;36.90;;;;;;20889212;28;20087;-14
2021/01/19 11:46:43;;;;;;;5.03;2.58;;;23.60;37.40;;;;;;20864818;28;20057;-16
2021/01/19 11:56:48;;;;;;;6.55;1.73;;;23.90;37.20;;;;;;20872250;28;20587;-16
2021/01/19 12:06:48;;;;;;;10.00;2.53;;;23.90;37.10;;;;;;20876758;28;20381;-13
2021/01/19 12:16:53;;;;;;;5.63;1.83;;;24.30;37.30;;;;;;20895699;28;20033;-14
2021/01/19 12:26:56;;;;;;;7.38;1.73;;;24.50;38.20;;;;;;20851888;28;20037;-13
2021/01/19 12:36:57;;;;;;;6.55;1.30;;;24.70;38.80;;;;;;20904523;28;20028;-13
2021/01/19 12:46:58;;;;;;;7.82;1.13;;;24.50;39.60;;;;;;20892369;28;20060;-13
2021/01/19 12:56:59;;;;;;;27.88;2.75;;;24.30;40.50;;;;;;20871224;28;20108;-14
2021/01/19 13:07:00;;;;;;;13.93;1.77;;;23.90;42.40;;;;;;20874639;28;20150;-14
2021/01/19 13:17:00;;;;;;;17.27;2.93;;;23.90;43.10;;;;;;20857365;28;20518;-14
2021/01/19 13:27:01;;;;;;;6.53;1.23;;;23.80;43.50;;;;;;20901120;28;20597;-14
2021/01/19 13:37:02;;;;;;;10.57;1.20;;;23.80;43.50;;;;;;20868865;28;20037;-13
2021/01/19 13:47:05;;;;;;;7.85;1.08;;;23.70;43.70;;;;;;20870025;28;20463;-14
2021/01/19 13:57:05;;;;;;;9.30;1.75;;;23.80;43.30;;;;;;20861516;28;20067;-15
2021/01/19 14:07:06;;;;;;;8.90;1.25;;;23.50;42.30;;;;;;20895581;28;20455;-15
2021/01/19 14:17:08;;;;;;;3.90;1.00;;;23.60;42.00;;;;;;20874564;28;20093;-15
2021/01/19 14:27:08;;;;;;;5.88;1.40;;;23.40;42.30;;;;;;20862773;28;20108;-15
2021/01/19 14:37:09;;;;;;;4.35;1.10;;;23.50;42.20;;;;;;20872327;28;20115;-15
2021/01/19 14:47:10;;;;;;;4.90;0.90;;;23.40;42.50;;;;;;20858840;28;20079;-13
2021/01/19 14:57:11;;;;;;;5.30;1.10;;;23.50;42.30;;;;;;20887383;28;20471;-15
2021/01/19 15:07:13;;;;;;;3.25;1.40;;;23.60;42.20;;;;;;20893125;28;20036;-15
2021/01/19 15:17:15;;;;;;;8.13;1.50;;;23.70;42.20;;;;;;20872717;28;20706;-15
2021/01/19 15:27:16;;;;;;;2.55;1.50;;;23.90;41.80;;;;;;20895959;28;20115;-15
2021/01/19 15:37:17;;;;;;;4.65;1.15;;;23.80;42.00;;;;;;20855113;28;20025;-15
2021/01/19 15:47:17;;;;;;;6.00;1.20;;;23.70;42.10;;;;;;20882937;28;20051;-15
2021/01/19 15:57:18;;;;;;;9.23;3.78;;;23.80;42.00;;;;;;20899104;28;20063;-15
2021/01/19 16:07:18;;;;;;;4.80;2.97;;;23.70;42.20;;;;;;20897389;28;20057;-15
2021/01/19 16:17:20;;;;;;;8.38;2.67;;;23.80;42.00;;;;;;20902264;28;20075;-15
2021/01/19 16:27:20;;;;;;;9.05;3.63;;;23.70;42.20;;;;;;20871935;28;20111;-15
2021/01/19 16:37:22;;;;;;;7.03;2.67;;;23.70;42.40;;;;;;20898407;28;20033;-15
2021/01/19 16:47:22;;;;;;;4.72;1.88;;;23.80;42.30;;;;;;20858691;28;20029;-15
2021/01/19 16:57:23;;;;;;;3.47;1.90;;;23.80;42.70;;;;;;20870136;28;20442;-15
2021/01/19 17:07:23;;;;;;;9.15;2.17;;;23.60;43.20;;;;;;20872769;28;20107;-15
2021/01/19 17:17:24;;;;;;;4.93;2.17;;;23.60;43.20;;;;;;20868033;28;20060;-15
2021/01/19 17:27:24;;;;;;;6.10;2.72;;;23.50;43.40;;;;;;20872645;28;20103;-15
2021/01/19 17:37:25;;;;;;;4.93;1.65;;;23.50;43.30;;;;;;20888064;28;20033;-15
2021/01/19 17:47:26;;;;;;;2.70;1.42;;;23.40;43.40;;;;;;20865224;28;20576;-16
2021/01/19 17:57:26;;;;;;;5.88;2.42;;;23.40;43.50;;;;;;20893002;28;20067;-15
2021/01/19 18:07:28;;;;;;;4.90;2.58;;;23.40;43.60;;;;;;20883417;28;20084;-16
2021/01/19 18:17:30;;;;;;;11.30;3.35;;;23.40;43.30;;;;;;20889591;28;20106;-16
2021/01/19 18:27:30;;;;;;;11.07;5.22;;;23.30;43.10;;;;;;20872641;28;20057;-16
2021/01/19 18:37:31;;;;;;;9.57;4.55;;;23.20;43.50;;;;;;20870941;28;20033;-16
2021/01/19 18:47:32;;;;;;;7.45;3.80;;;23.30;43.60;;;;;;20867662;28;20036;-16
2021/01/19 18:57:32;;;;;;;5.88;3.20;;;23.40;44.40;;;;;;20875997;28;20053;-15
2021/01/19 19:07:35;;;;;;;7.40;3.42;;;23.60;45.00;;;;;;20887593;28;20107;-15
2021/01/19 19:17:35;;;;;;;6.90;3.65;;;23.60;45.60;;;;;;20878276;28;20087;-15
2021/01/19 19:27:44;;;;;;;7.95;3.28;;;23.30;45.50;;;;;;20891168;28;20033;-15
2021/01/19 19:37:44;;;;;;;7.82;3.15;;;23.30;45.10;;;;;;20906317;28;20412;-15
2021/01/19 19:47:45;;;;;;;6.78;3.47;;;23.30;45.00;;;;;;20877363;28;20116;-15
2021/01/19 19:57:45;;;;;;;10.85;3.45;;;23.30;44.80;;;;;;20876030;28;20045;-15
2021/01/19 20:07:46;;;;;;;9.90;3.13;;;23.20;44.80;;;;;;20878916;28;20030;-15
2021/01/19 20:17:47;;;;;;;10.63;3.30;;;23.20;44.60;;;;;;20870719;28;20397;-15
2021/01/19 20:27:50;;;;;;;7.47;2.90;;;23.20;44.50;;;;;;20870641;28;20040;-15
2021/01/19 20:37:51;;;;;;;17.42;7.68;;;23.30;44.30;;;;;;20861239;28;20052;-15
2021/01/19 20:47:51;;;;;;;22.55;20.10;;;23.30;44.90;;;;;;20883168;28;20029;-15
2021/01/19 20:57:52;;;;;;;21.63;16.10;;;23.50;45.20;;;;;;20854579;28;20025;-15
2021/01/19 21:07:52;;;;;;;17.33;14.02;;;23.40;44.70;;;;;;20853927;28;20529;-15
2021/01/19 21:17:53;;;;;;;16.70;11.82;;;23.30;44.60;;;;;;20854504;28;20033;-15
2021/01/19 21:27:54;;;;;;;15.00;11.77;;;23.20;44.90;;;;;;20871832;28;20057;-15
2021/01/19 21:37:54;;;;;;;9.43;8.50;;;23.00;45.20;;;;;;20855162;28;20117;-14
2021/01/19 21:47:55;;;;;;;14.40;8.43;;;22.70;45.50;;;;;;20888493;28;20549;-14
2021/01/19 21:57:55;;;;;;;9.32;7.28;;;22.60;45.10;;;;;;20882434;28;20025;-15
2021/01/19 22:07:56;;;;;;;11.68;7.68;;;22.30;45.40;;;;;;20854094;28;20052;-16
2021/01/19 22:17:57;;;;;;;9.00;7.05;;;22.10;45.50;;;;;;20871973;28;20041;-16
2021/01/19 22:27:57;;;;;;;12.40;6.53;;;21.80;45.80;;;;;;20866998;28;20033;-15
2021/01/19 22:37:58;;;;;;;7.97;5.53;;;21.60;46.10;;;;;;20871034;28;20045;-15
2021/01/19 22:47:59;;;;;;;7.88;4.68;;;21.50;45.80;;;;;;20872766;28;20080;-14
2021/01/19 22:57:59;;;;;;;7.85;4.28;;;21.40;45.80;;;;;;20863458;28;20545;-16
2021/01/19 23:08:00;;;;;;;5.32;3.95;;;21.30;45.70;;;;;;20821082;28;20040;-16
2021/01/19 23:18:03;;;;;;;5.15;3.63;;;21.30;45.40;;;;;;20821899;28;20030;-14
2021/01/19 23:28:05;;;;;;;5.05;3.58;;;21.30;45.20;;;;;;20855662;28;20387;-15
2021/01/19 23:38:05;;;;;;;6.15;3.30;;;21.20;45.10;;;;;;20868868;28;20530;-15
2021/01/19 23:48:06;;;;;;;5.07;2.97;;;21.20;45.00;;;;;;20883527;28;20155;-15
2021/01/19 23:58:06;;;;;;;4.85;2.80;;;20.90;45.30;;;;;;20886830;28;20041;-15
